Time;durP1;ratioP1;P1;durP2;ratioP2;P2;SDS_P1;SDS_P2;PMS_P1;PMS_P2;Temp;Humidity;BMP_temperature;BMP_pressure;BME280_temperature;BME280_humidity;BME280_pressure;Samples;Min_cycle;Max_cycle;Signal;HPM_P1;HPM_P2
2021/12/11 00:02:19;;;;;;;;;;;;;;;-3.16;76.53;91153.94;6129348;23;20125;-93
2021/12/11 00:05:31;;;;;;;;;;;;;;;-3.10;75.91;91161.72;6133273;23;19945;-94
2021/12/11 00:08:47;;;;;;;;;;;;;;;;;;;;;
2021/12/11 00:12:05;;;;;;;;;;;;;;;-2.98;74.95;91152.91;6109051;23;19917;-95
2021/12/11 00:18:35;;;;;;;;;;;;;;;;;;;;;
2021/12/11 00:32:24;;;;;;;;;;;;;;;;;;;;;
2021/12/11 00:39:37;;;;;;;;;;;;;;;;;;;;;
2021/12/11 00:42:33;;;;;;;;;;;;;;;;;;;;;
2021/12/11 00:49:34;;;;;;;;;;;;;;;;;;;;;
2021/12/11 00:53:06;;;;;;;;;;;;;;;;;;;;;
2021/12/11 01:00:54;;;;;;;;;;;;;;;;;;;;;
2021/12/11 01:04:10;;;;;;;;;;;;;;;-2.85;65.56;91185.09;6084733;23;19957;-94
2021/12/11 01:07:30;;;;;;;;;;;;;;;-2.85;66.00;91195.31;6075013;23;19914;-94
2021/12/11 01:14:32;;;;;;;;;;;;;;;;;;;;;
2021/12/11 01:24:58;;;;;;;;;;;;;;;;;;;;;
2021/12/11 01:41:42;;;;;;;;;;;;;;;-2.54;60.65;91242.63;6184003;23;19916;-94
2021/12/11 01:44:45;;;;;;;;;;;;;;;-2.04;54.09;91240.91;6160610;23;20347;-94
2021/12/11 01:48:11;;;;;;;;;;;;;;;;;;;;;
2021/12/11 01:54:34;;;;;;;;;;;;;;;;;;;;;
2021/12/11 01:57:05;;;;;;;;;;;;;;;-2.12;56.55;91243.88;6186945;23;19915;-95
2021/12/11 01:59:45;;;;;;;;;;;;;;;-2.18;57.54;91249.97;6279114;22;19915;-95
2021/12/11 02:05:25;;;;;;;;;;;;;;;-2.24;57.74;91250.91;6282161;22;19918;-95
2021/12/11 02:08:30;;;;;;;;;;;;;;;-2.32;58.67;91250.34;6309939;22;20021;-94
2021/12/11 02:11:49;;;;;;;;;;;;;;;;;;;;;
2021/12/11 02:14:40;;;;;;;;;;;;;;;-2.24;55.70;91245.78;6311048;22;20004;-95
2021/12/11 02:17:44;;;;;;;;;;;;;;;-2.12;56.04;91246.44;6283020;22;19917;-94
2021/12/11 02:20:19;;;;;;;;;;;;;;;-2.07;55.27;91243.94;6190027;23;19990;-94
2021/12/11 02:22:49;;;;;;;;;;;;;;;-2.11;55.91;91255.69;6245831;22;19911;-93
2021/12/11 02:32:38;;;;;;;;;;;;;;;;;;;;;
2021/12/11 02:35:37;;;;;;;;;;;;;;;-1.97;53.95;91241.47;6307475;22;19910;-94
2021/12/11 02:38:37;;;;;;;;;;;;;;;-1.76;52.56;91236.56;6259869;22;19917;-95
2021/12/11 02:41:51;;;;;;;;;;;;;;;;;;;;;
2021/12/11 02:44:40;;;;;;;;;;;;;;;-1.46;50.57;91241.22;6321844;22;20310;-94
2021/12/11 02:47:29;;;;;;;;;;;;;;;-1.25;50.35;91242.16;6293210;22;19918;-94
2021/12/11 02:50:16;;;;;;;;;;;;;;;;;;;;;
2021/12/11 02:52:58;;;;;;;;;;;;;;;-1.09;49.72;91235.34;6284244;22;20300;-93
2021/12/11 02:55:54;;;;;;;;;;;;;;;;;;;;;
2021/12/11 02:58:56;;;;;;;;;;;;;;;-0.96;47.95;91241.88;6311180;22;20400;-94
2021/12/11 03:01:47;;;;;;;;;;;;;;;-0.76;46.93;91242.00;6309513;22;19911;-95
2021/12/11 03:04:34;;;;;;;;;;;;;;;-0.75;47.78;91240.97;6215814;22;19985;-94
2021/12/11 03:07:37;;;;;;;;;;;;;;;-0.49;46.10;91238.56;6283424;22;19982;-94
2021/12/11 03:13:49;;;;;;;;;;;;;;;;;;;;;
2021/12/11 03:16:36;;;;;;;;;;;;;;;-0.58;47.02;91247.78;6309159;22;20377;-95
2021/12/11 03:19:32;;;;;;;;;;;;;;;;;;;;;
2021/12/11 03:22:34;;;;;;;;;;;;;;;;;;;;;
2021/12/11 03:25:13;;;;;;;;;;;;;;;-0.30;46.22;91251.78;6284643;22;19918;-95
2021/12/11 03:28:01;;;;;;;;;;;;;;;-0.19;46.14;91247.47;6260198;22;19911;-96
2021/12/11 03:31:01;;;;;;;;;;;;;;;;;;;;;
2021/12/11 03:33:49;;;;;;;;;;;;;;;-0.23;45.98;91247.94;6285617;22;19921;-95
2021/12/11 03:36:35;;;;;;;;;;;;;;;-0.18;45.77;91252.38;6311945;22;19943;-94
2021/12/11 03:39:37;;;;;;;;;;;;;;;-0.08;44.51;91249.06;6284870;22;20322;-95
2021/12/11 03:42:21;;;;;;;;;;;;;;;-0.12;45.80;91256.50;6290998;22;19986;-95
2021/12/11 03:45:35;;;;;;;;;;;;;;;-0.12;44.89;91259.06;6289075;22;20434;-95
2021/12/11 03:48:28;;;;;;;;;;;;;;;-0.02;44.76;91271.97;6261448;22;19919;-96
2021/12/11 03:51:00;;;;;;;;;;;;;;;0.06;44.93;91265.56;6282066;22;19980;-94
2021/12/11 03:53:34;;;;;;;;;;;;;;;0.10;44.81;91273.56;6258217;22;19911;-94
2021/12/11 03:56:13;;;;;;;;;;;;;;;0.10;45.22;91269.19;6280698;22;20049;-93
2021/12/11 03:59:08;;;;;;;;;;;;;;;-0.02;45.84;91278.94;6263704;22;19981;-93
2021/12/11 04:02:09;;;;;;;;;;;;;;;-0.14;46.69;91281.69;6260046;22;19915;-96
2021/12/11 04:04:54;;;;;;;;;;;;;;;;;;;;;
2021/12/11 04:07:50;;;;;;;;;;;;;;;-0.06;45.22;91288.94;6282869;22;19946;-94
2021/12/11 04:10:47;;;;;;;;;;;;;;;;;;;;;
2021/12/11 04:14:01;;;;;;;;;;;;;;;0.08;44.83;91286.69;6304871;22;19997;-95
2021/12/11 04:19:48;;;;;;;;;;;;;;;0.25;44.35;91289.06;6288931;22;19922;-94
2021/12/11 04:22:33;;;;;;;;;;;;;;;;;;;;;
2021/12/11 04:25:19;;;;;;;;;;;;;;;;;;;;;
2021/12/11 04:28:06;;;;;;;;;;;;;;;0.26;43.70;91289.84;6283093;22;19910;-95
2021/12/11 04:37:31;;;;;;;;;;;;;;;0.19;43.67;91311.44;6282647;22;20512;-94
2021/12/11 04:40:13;;;;;;;;;;;;;;;0.35;43.63;91319.22;6258136;22;19917;-94
2021/12/11 04:46:04;;;;;;;;;;;;;;;0.40;43.86;91324.38;6309391;22;19931;-96
2021/12/11 04:49:26;;;;;;;;;;;;;;;;;;;;;
2021/12/11 04:53:23;;;;;;;;;;;;;;;0.44;43.05;91335.72;6257820;22;19922;-95
2021/12/11 05:10:47;;;;;;;;;;;;;;;;;;;;;
2021/12/11 05:13:42;;;;;;;;;;;;;;;1.00;42.24;91340.25;6310031;22;20377;-95
2021/12/11 05:16:33;;;;;;;;;;;;;;;0.93;42.00;91330.19;6284371;22;19942;-95
2021/12/11 05:26:26;;;;;;;;;;;;;;;;;;;;;
2021/12/11 05:29:33;;;;;;;;;;;;;;;0.97;42.25;91346.69;6213174;23;20402;-94
2021/12/11 05:32:38;;;;;;;;;;;;;;;0.83;42.53;91340.47;6215411;23;19991;-95
2021/12/11 05:36:14;;;;;;;;;;;;;;;;;;;;;
2021/12/11 05:39:02;;;;;;;;;;;;;;;0.75;42.96;91357.22;6311090;22;19911;-96
2021/12/11 05:41:40;;;;;;;;;;;;;;;1.17;40.16;91361.44;6260111;22;20070;-95
2021/12/11 05:47:58;;;;;;;;;;;;;;;;;;;;;
2021/12/11 05:51:00;;;;;;;;;;;;;;;0.88;42.28;91368.03;6310186;22;20044;-95
2021/12/11 05:53:47;;;;;;;;;;;;;;;0.82;43.06;91375.78;6260020;22;19915;-94
2021/12/11 05:56:36;;;;;;;;;;;;;;;;;;;;;
2021/12/11 06:09:30;;;;;;;;;;;;;;;1.07;41.11;91401.88;6325488;22;20407;-95
2021/12/11 06:19:04;;;;;;;;;;;;;;;0.92;43.04;91400.78;6306947;22;19942;-94
2021/12/11 06:22:01;;;;;;;;;;;;;;;0.96;42.48;91396.69;6265721;22;19915;-94
2021/12/11 06:24:42;;;;;;;;;;;;;;;0.90;42.64;91405.44;6263823;22;20491;-94
2021/12/11 06:27:35;;;;;;;;;;;;;;;;;;;;;
2021/12/11 06:30:57;;;;;;;;;;;;;;;;;;;;;
2021/12/11 06:34:13;;;;;;;;;;;;;;;;;;;;;
2021/12/11 06:41:33;;;;;;;;;;;;;;;;;;;;;
2021/12/11 06:44:17;;;;;;;;;;;;;;;;;;;;;
2021/12/11 07:01:09;;;;;;;;;;;;;;;1.10;42.37;91468.38;6187218;23;20415;-93
2021/12/11 07:04:07;;;;;;;;;;;;;;;1.12;41.81;91456.78;6161603;23;20349;-92
2021/12/11 07:17:07;;;;;;;;;;;;;;;1.15;41.68;91496.72;6181210;22;1157674;-76
2021/12/11 07:19:32;;;;;;;;;;;;;;;1.63;41.61;91493.00;6277954;22;19911;-76
2021/12/11 07:21:58;;;;;;;;;;;;;;;3.50;39.10;91501.78;6305857;22;19915;-77
2021/12/11 07:24:30;;;;;;;;;;;;;;;6.02;34.60;91495.00;6277665;22;19911;-76
2021/12/11 07:26:56;;;;;;;;;;;;;;;8.21;31.46;91497.28;6278666;22;19915;-77
2021/12/11 07:29:22;;;;;;;;;;;;;;;9.36;28.14;91495.78;6277690;22;19953;-77
2021/12/11 07:31:49;;;;;;;;;;;;;;;10.91;27.27;91499.94;6278071;22;20237;-77
2021/12/11 07:34:15;;;;;;;;;;;;;;;11.50;25.84;91499.28;6306613;22;19935;-77
2021/12/11 07:36:41;;;;;;;;;;;;;;;13.12;24.01;91504.78;6306781;22;19911;-77
2021/12/11 07:39:08;;;;;;;;;;;;;;;14.22;21.95;91508.59;6305558;22;20289;-78
2021/12/11 07:41:33;;;;;;;;;;;;;;;14.71;21.10;91503.22;6306956;22;19985;-78
2021/12/11 07:43:59;;;;;;;;;;;;;;;15.86;20.34;91519.31;6307115;22;20395;-78
2021/12/11 07:46:26;;;;;;;;;;;;;;;16.26;19.58;91510.41;6306893;22;19911;-78
2021/12/11 07:48:52;;;;;;;;;;;;;;;16.82;18.84;91522.53;6308076;22;19934;-79
2021/12/11 07:51:19;;;;;;;;;;;;;;;17.75;17.58;91520.81;6308623;22;20252;-78
2021/12/11 07:53:45;;;;;;;;;;;;;;;17.75;17.32;91523.44;6257046;22;20096;-80
2021/12/11 07:56:12;;;;;;;;;;;;;;;18.25;16.83;91521.59;6280287;22;19906;-79
2021/12/11 07:58:37;;;;;;;;;;;;;;;19.37;16.16;91529.81;6280169;22;19906;-79
2021/12/11 08:01:05;;;;;;;;;;;;;;;19.34;16.62;91528.66;6307868;22;20376;-79
2021/12/11 08:03:31;;;;;;;;;;;;;;;20.00;15.13;91530.06;6281993;22;20317;-80
2021/12/11 08:05:57;;;;;;;;;;;;;;;20.94;14.96;91543.59;6308394;22;19917;-79
2021/12/11 08:08:23;;;;;;;;;;;;;;;21.10;13.40;91548.63;6281191;22;19917;-79
2021/12/11 08:10:51;;;;;;;;;;;;;;;21.64;14.53;91554.13;6281882;22;19907;-80
2021/12/11 08:13:17;;;;;;;;;;;;;;;20.81;14.30;91553.03;6308811;22;19903;-79
2021/12/11 08:15:44;;;;;;;;;;;;;;;21.50;14.50;91562.06;6281568;22;20002;-79
2021/12/11 08:18:10;;;;;;;;;;;;;;;22.23;13.52;91561.84;6308536;22;19925;-80
2021/12/11 08:20:38;;;;;;;;;;;;;;;22.83;12.97;91562.91;6281928;22;19914;-80
2021/12/11 08:23:05;;;;;;;;;;;;;;;22.16;12.72;91575.91;6281119;22;19941;-80
2021/12/11 08:25:31;;;;;;;;;;;;;;;20.86;15.06;91579.25;6281801;22;19990;-80
2021/12/11 08:27:57;;;;;;;;;;;;;;;19.14;14.20;91580.38;6281506;22;19902;-80
2021/12/11 08:30:24;;;;;;;;;;;;;;;21.37;13.69;91583.69;6309096;22;19907;-80
2021/12/11 08:32:50;;;;;;;;;;;;;;;22.98;12.69;91583.09;6309041;22;20336;-80
2021/12/11 08:35:15;;;;;;;;;;;;;;;23.38;11.95;91583.78;6281614;22;19981;-80
2021/12/11 08:37:43;;;;;;;;;;;;;;;22.71;12.22;91590.00;6256844;22;19907;-81
2021/12/11 08:40:12;;;;;;;;;;;;;;;21.04;12.22;91591.91;6308820;22;20284;-80
2021/12/11 08:42:38;;;;;;;;;;;;;;;21.99;13.18;91605.94;6281013;22;19986;-80
2021/12/11 08:45:06;;;;;;;;;;;;;;;22.29;12.87;91600.31;6308481;22;20340;-80
2021/12/11 08:47:39;;;;;;;;;;;;;;;22.69;13.10;91602.97;6281420;22;20334;-80
2021/12/11 08:50:06;;;;;;;;;;;;;;;22.60;12.69;91614.03;6308535;22;19949;-78
2021/12/11 08:52:34;;;;;;;;;;;;;;;20.44;13.68;91612.38;6281830;22;20393;-80
2021/12/11 08:55:02;;;;;;;;;;;;;;;20.04;14.47;91623.81;6281348;22;20033;-81
2021/12/11 08:57:30;;;;;;;;;;;;;;;18.39;15.62;91616.41;6308847;22;19964;-80
2021/12/11 08:59:57;;;;;;;;;;;;;;;16.14;17.39;91637.22;6281642;22;19918;-80
2021/12/11 09:02:27;;;;;;;;;;;;;;;16.70;16.58;91634.38;6278616;22;19930;-80
2021/12/11 09:05:00;;;;;;;;;;;;;;;17.46;16.00;91639.38;6280766;22;20366;-80
2021/12/11 09:07:31;;;;;;;;;;;;;;;19.40;15.72;91645.09;6308369;22;19948;-81
2021/12/11 09:10:15;;;;;;;;;;;;;;;20.23;14.85;91649.41;6280600;22;20005;-80
2021/12/11 09:12:47;;;;;;;;;;;;;;;19.86;15.58;91652.84;6280468;22;19907;-80
2021/12/11 09:15:21;;;;;;;;;;;;;;;21.76;13.23;91651.56;6280958;22;19914;-79
2021/12/11 09:17:49;;;;;;;;;;;;;;;21.94;13.05;91656.94;6278384;22;20219;-79
2021/12/11 09:20:17;;;;;;;;;;;;;;;21.18;13.71;91663.81;6307628;22;19952;-83
2021/12/11 09:22:46;;;;;;;;;;;;;;;18.17;14.55;91670.91;6279967;22;19914;-78
2021/12/11 09:25:17;;;;;;;;;;;;;;;17.48;16.77;91671.53;6305841;22;20361;-79
2021/12/11 09:27:51;;;;;;;;;;;;;;;17.05;16.66;91679.34;6306472;22;19910;-79
2021/12/11 09:30:25;;;;;;;;;;;;;;;16.32;17.31;91683.31;6305551;22;19981;-79
2021/12/11 09:32:53;;;;;;;;;;;;;;;16.14;17.44;91684.75;6277286;22;19907;-79
2021/12/11 09:35:19;;;;;;;;;;;;;;;15.32;17.89;91685.97;6252754;22;20233;-79
2021/12/11 09:37:45;;;;;;;;;;;;;;;15.72;18.06;91701.03;6278580;22;19938;-80
2021/12/11 09:40:20;;;;;;;;;;;;;;;14.72;19.82;91697.03;6279231;22;19910;-79
2021/12/11 09:42:45;;;;;;;;;;;;;;;16.16;17.77;91698.38;6279931;22;19996;-79
2021/12/11 09:45:13;;;;;;;;;;;;;;;16.40;18.25;91706.16;6283077;22;19903;-80
2021/12/11 09:47:41;;;;;;;;;;;;;;;15.72;17.91;91708.94;6308917;22;20330;-79
2021/12/11 09:50:12;;;;;;;;;;;;;;;14.20;19.28;91708.19;6310202;22;19907;-79
2021/12/11 09:52:39;;;;;;;;;;;;;;;13.76;20.66;91715.75;6316408;22;19961;-79
2021/12/11 09:55:12;;;;;;;;;;;;;;;14.07;20.85;91711.88;6315313;22;19918;-78
2021/12/11 09:57:40;;;;;;;;;;;;;;;14.04;19.12;91715.16;6312645;22;20033;-79
2021/12/11 10:00:14;;;;;;;;;;;;;;;12.62;20.75;91723.63;6286437;22;20318;-80
2021/12/11 10:02:40;;;;;;;;;;;;;;;13.12;21.99;91725.50;6315194;22;19985;-80
2021/12/11 10:05:28;;;;;;;;;;;;;;;13.79;20.91;91727.50;6289166;22;19914;-80
2021/12/11 10:08:12;;;;;;;;;;;;;;;14.33;19.89;91719.50;6291411;22;19910;-80
2021/12/11 10:10:38;;;;;;;;;;;;;;;14.93;20.32;91722.53;6295741;22;19910;-80
2021/12/11 10:13:04;;;;;;;;;;;;;;;14.56;19.19;91720.63;6266013;22;19906;-80
2021/12/11 10:15:31;;;;;;;;;;;;;;;14.93;20.22;91720.66;6291328;22;19973;-80
2021/12/11 10:18:02;;;;;;;;;;;;;;;15.09;20.08;91730.50;6264886;22;19950;-80
2021/12/11 10:20:30;;;;;;;;;;;;;;;15.42;19.94;91722.41;6319576;22;19907;-81
2021/12/11 10:22:57;;;;;;;;;;;;;;;15.51;19.80;91730.94;6289493;22;19907;-80
2021/12/11 10:25:27;;;;;;;;;;;;;;;15.44;20.22;91735.28;6290629;22;19906;-80
2021/12/11 10:27:53;;;;;;;;;;;;;;;15.68;18.37;91731.81;6314182;22;20002;-79
2021/12/11 10:30:20;;;;;;;;;;;;;;;15.14;19.42;91733.69;6285047;22;19910;-83
2021/12/11 10:32:46;;;;;;;;;;;;;;;14.84;19.16;91740.28;6288011;22;19958;-77
2021/12/11 10:35:15;;;;;;;;;;;;;;;14.96;19.98;91748.19;6286789;22;19907;-80
2021/12/11 10:37:42;;;;;;;;;;;;;;;14.54;20.21;91751.00;6286209;22;20245;-79
2021/12/11 10:40:22;;;;;;;;;;;;;;;14.85;19.87;91747.88;6311452;22;19914;-81
2021/12/11 10:42:54;;;;;;;;;;;;;;;14.86;19.64;91749.41;6286606;22;19907;-78
2021/12/11 10:45:19;;;;;;;;;;;;;;;14.66;21.05;91761.59;6313314;22;19907;-80
2021/12/11 10:47:50;;;;;;;;;;;;;;;14.93;19.24;91754.91;6285813;22;20110;-78
2021/12/11 10:50:36;;;;;;;;;;;;;;;14.55;21.08;91761.25;6310795;22;19961;-79
2021/12/11 10:53:04;;;;;;;;;;;;;;;14.69;19.67;91766.19;6260337;22;19907;-78
2021/12/11 10:55:31;;;;;;;;;;;;;;;14.91;20.70;91764.25;6312696;22;19903;-79
2021/12/11 10:58:01;;;;;;;;;;;;;;;14.78;20.07;91774.00;6287039;22;19907;-79
2021/12/11 11:00:31;;;;;;;;;;;;;;;14.16;19.95;91778.34;6287168;22;19934;-79
2021/12/11 11:02:57;;;;;;;;;;;;;;;12.97;21.69;91776.00;6312123;22;19909;-79
2021/12/11 11:05:23;;;;;;;;;;;;;;;11.71;23.34;91788.53;6310201;22;20309;-79
2021/12/11 11:07:49;;;;;;;;;;;;;;;11.56;25.42;91784.50;6257962;22;20249;-79
2021/12/11 11:10:23;;;;;;;;;;;;;;;12.24;23.60;91782.13;6309560;22;19903;-79
2021/12/11 11:12:49;;;;;;;;;;;;;;;12.74;24.20;91779.94;6310539;22;20322;-79
2021/12/11 11:15:18;;;;;;;;;;;;;;;12.71;23.54;91786.59;6311742;22;19907;-79
2021/12/11 11:17:44;;;;;;;;;;;;;;;11.35;23.77;91794.81;6311203;22;20322;-79
2021/12/11 11:20:15;;;;;;;;;;;;;;;11.64;24.50;91793.44;6310424;22;19997;-80
2021/12/11 11:22:42;;;;;;;;;;;;;;;11.54;24.84;91796.38;6313245;22;19957;-79
2021/12/11 11:25:11;;;;;;;;;;;;;;;11.32;24.55;91800.66;6312404;22;19956;-80
2021/12/11 11:27:37;;;;;;;;;;;;;;;11.26;24.55;91801.91;6263491;22;19934;-81
2021/12/11 11:30:08;;;;;;;;;;;;;;;11.21;25.77;91800.22;6287978;22;19907;-80
2021/12/11 11:32:36;;;;;;;;;;;;;;;11.80;24.29;91807.63;6285843;22;19914;-78
2021/12/11 11:35:05;;;;;;;;;;;;;;;11.35;24.68;91805.31;6287479;22;19918;-78
2021/12/11 11:37:32;;;;;;;;;;;;;;;11.90;25.52;91808.44;6313343;22;19933;-78
2021/12/11 11:39:58;;;;;;;;;;;;;;;12.54;22.43;91810.28;6260974;22;19913;-80
2021/12/11 11:42:24;;;;;;;;;;;;;;;11.55;23.91;91808.38;6313567;22;19986;-79
2021/12/11 11:44:50;;;;;;;;;;;;;;;12.24;23.46;91824.09;6310714;22;19914;-79
2021/12/11 11:47:22;;;;;;;;;;;;;;;11.37;22.54;91818.09;6312445;22;19923;-79
2021/12/11 11:49:49;;;;;;;;;;;;;;;10.38;24.92;91816.56;6259383;22;19907;-79
2021/12/11 11:52:19;;;;;;;;;;;;;;;10.93;24.48;91831.09;6311141;22;19903;-79
2021/12/11 11:54:47;;;;;;;;;;;;;;;11.53;23.13;91839.38;6313734;22;19907;-80
2021/12/11 11:57:15;;;;;;;;;;;;;;;11.58;21.87;91842.63;6288690;22;19956;-79
2021/12/11 11:59:41;;;;;;;;;;;;;;;11.56;22.71;91841.41;6316233;22;20289;-80
2021/12/11 12:02:09;;;;;;;;;;;;;;;11.04;22.83;91829.75;6285191;22;19907;-79
2021/12/11 12:04:36;;;;;;;;;;;;;;;11.15;23.62;91847.81;6320667;22;20323;-80
2021/12/11 12:07:03;;;;;;;;;;;;;;;11.91;23.20;91844.06;6280435;22;20242;-81
2021/12/11 12:09:31;;;;;;;;;;;;;;;12.61;22.06;91836.81;6306351;22;19907;-80
2021/12/11 12:11:59;;;;;;;;;;;;;;;12.98;21.49;91850.31;6307534;22;19980;-78
2021/12/11 12:14:32;;;;;;;;;;;;;;;13.10;21.62;91840.69;6257222;22;19918;-80
2021/12/11 12:16:58;;;;;;;;;;;;;;;12.36;21.65;91836.59;6279519;22;19911;-79
2021/12/11 12:19:25;;;;;;;;;;;;;;;12.87;22.66;91857.75;6308110;22;19911;-79
2021/12/11 12:21:52;;;;;;;;;;;;;;;13.08;22.29;91861.25;6250187;22;19915;-78
2021/12/11 12:24:19;;;;;;;;;;;;;;;13.34;21.06;91852.47;6279305;22;20261;-79
2021/12/11 12:26:45;;;;;;;;;;;;;;;12.89;19.55;91845.84;6305276;22;19964;-80
2021/12/11 12:29:14;;;;;;;;;;;;;;;12.15;22.49;91851.44;6253627;22;19960;-79
2021/12/11 12:31:45;;;;;;;;;;;;;;;12.53;22.12;91862.03;6305519;22;19907;-79
2021/12/11 12:34:12;;;;;;;;;;;;;;;12.79;20.40;91858.56;6277645;22;19911;-79
2021/12/11 12:36:39;;;;;;;;;;;;;;;13.28;20.75;91866.88;6276505;22;19906;-79
2021/12/11 12:39:07;;;;;;;;;;;;;;;13.69;20.43;91878.56;6279302;22;19942;-79
2021/12/11 12:41:35;;;;;;;;;;;;;;;13.81;20.77;91870.75;6252504;22;19907;-79
2021/12/11 12:46:51;;;;;;;;;;;;;;;14.07;20.60;91875.03;6304576;22;20259;-80
2021/12/11 12:49:17;;;;;;;;;;;;;;;13.12;19.45;91872.63;6277353;22;20666;-79
2021/12/11 12:51:43;;;;;;;;;;;;;;;12.76;21.30;91867.06;6275804;22;20238;-78
2021/12/11 12:54:11;;;;;;;;;;;;;;;12.65;20.65;91875.31;6277774;22;20007;-78
2021/12/11 12:56:42;;;;;;;;;;;;;;;12.46;20.51;91878.25;6251008;22;19910;-79
2021/12/11 12:59:13;;;;;;;;;;;;;;;12.27;21.25;91880.44;6278485;22;20412;-79
2021/12/11 13:01:51;;;;;;;;;;;;;;;11.99;20.75;91880.00;6305651;22;19930;-79
2021/12/11 13:04:19;;;;;;;;;;;;;;;11.99;20.91;91882.63;6302781;22;20262;-78
2021/12/11 13:06:51;;;;;;;;;;;;;;;12.17;20.39;91886.78;6273420;22;20352;-79
2021/12/11 13:09:26;;;;;;;;;;;;;;;12.52;20.85;91886.75;6275977;22;19911;-79
2021/12/11 13:12:13;;;;;;;;;;;;;;;12.81;21.25;91880.03;6300885;22;19910;-79
2021/12/11 13:14:40;;;;;;;;;;;;;;;13.09;21.03;91886.41;6249996;22;19906;-80
2021/12/11 13:17:15;;;;;;;;;;;;;;;13.29;20.76;91895.50;6276201;22;19911;-82
2021/12/11 13:19:46;;;;;;;;;;;;;;;12.15;21.07;91888.19;6276269;22;20393;-78
2021/12/11 13:22:24;;;;;;;;;;;;;;;12.14;20.68;91894.53;6276331;22;19906;-79
2021/12/11 13:24:52;;;;;;;;;;;;;;;11.51;21.72;91892.13;6276631;22;19911;-83
2021/12/11 13:27:19;;;;;;;;;;;;;;;11.75;21.16;91902.16;6278355;22;19911;-80
2021/12/11 13:29:48;;;;;;;;;;;;;;;11.25;22.85;91907.78;6279288;22;20318;-80
2021/12/11 13:32:19;;;;;;;;;;;;;;;11.62;21.63;91908.34;6253643;22;19939;-79
2021/12/11 13:34:48;;;;;;;;;;;;;;;12.05;21.75;91911.03;6278910;22;19961;-80
2021/12/11 13:37:15;;;;;;;;;;;;;;;12.02;20.82;91910.84;6250947;22;19906;-83
2021/12/11 13:39:41;;;;;;;;;;;;;;;12.39;21.80;91911.31;6285661;22;20214;-83
2021/12/11 13:42:09;;;;;;;;;;;;;;;12.57;21.18;91920.72;6286419;22;20330;-83
2021/12/11 13:44:37;;;;;;;;;;;;;;;12.76;21.99;91927.47;6285608;22;19953;-80
2021/12/11 13:47:04;;;;;;;;;;;;;;;12.81;21.04;91932.56;6311063;22;19960;-82
2021/12/11 13:49:30;;;;;;;;;;;;;;;12.86;18.89;91927.91;6260446;22;19918;-86
2021/12/11 13:51:58;;;;;;;;;;;;;;;12.64;19.18;91925.50;6314347;22;19918;-81
2021/12/11 13:54:25;;;;;;;;;;;;;;;11.93;21.96;91931.06;6282707;22;20360;-82
2021/12/11 13:56:52;;;;;;;;;;;;;;;12.12;23.03;91939.41;6287800;22;20291;-79
2021/12/11 13:59:18;;;;;;;;;;;;;;;12.25;22.01;91941.13;6316080;22;19903;-80
2021/12/11 14:01:45;;;;;;;;;;;;;;;12.07;20.76;91934.34;6285997;22;20096;-80
2021/12/11 14:04:12;;;;;;;;;;;;;;;11.97;19.77;91937.25;6286184;22;19907;-80
2021/12/11 14:06:47;;;;;;;;;;;;;;;11.35;22.03;91946.81;6283858;22;19917;-79
2021/12/11 14:09:14;;;;;;;;;;;;;;;11.63;22.89;91957.81;6285470;22;19914;-81
2021/12/11 14:11:41;;;;;;;;;;;;;;;11.76;22.95;91952.78;6308751;22;19926;-81
2021/12/11 14:14:08;;;;;;;;;;;;;;;11.31;21.95;91958.97;6308273;22;20253;-80
2021/12/11 14:16:34;;;;;;;;;;;;;;;11.36;22.06;91960.69;6279876;22;19902;-81
2021/12/11 14:18:59;;;;;;;;;;;;;;;11.58;22.28;91962.44;6279871;22;19922;-79
2021/12/11 14:21:25;;;;;;;;;;;;;;;11.40;21.49;91957.16;6309781;22;19957;-80
2021/12/11 14:23:51;;;;;;;;;;;;;;;11.51;21.40;91965.50;6281377;22;19906;-80
2021/12/11 14:26:17;;;;;;;;;;;;;;;11.76;21.64;91966.66;6309174;22;19964;-79
2021/12/11 14:28:43;;;;;;;;;;;;;;;11.69;20.48;91970.81;6309181;22;20326;-81
2021/12/11 14:31:10;;;;;;;;;;;;;;;11.84;22.03;91981.66;6281569;22;19907;-80
2021/12/11 14:33:36;;;;;;;;;;;;;;;11.78;21.40;91982.09;6281606;22;19914;-82
2021/12/11 14:36:04;;;;;;;;;;;;;;;11.59;21.29;91988.34;6281606;22;19903;-82
2021/12/11 14:38:29;;;;;;;;;;;;;;;11.43;22.06;91981.97;6312352;22;19907;-81
2021/12/11 14:40:55;;;;;;;;;;;;;;;11.40;21.66;91995.69;6287046;22;19926;-80
2021/12/11 14:43:22;;;;;;;;;;;;;;;10.60;20.90;91988.50;6312085;22;19942;-80
2021/12/11 14:45:49;;;;;;;;;;;;;;;10.12;23.16;92003.91;6310262;22;19917;-81
2021/12/11 14:48:14;;;;;;;;;;;;;;;9.38;23.47;92010.84;6310582;22;20219;-82
2021/12/11 14:50:42;;;;;;;;;;;;;;;8.66;24.39;92005.31;6310802;22;19958;-81
2021/12/11 14:53:27;;;;;;;;;;;;;;;8.28;25.70;92000.09;6310752;22;19906;-79
2021/12/11 14:55:57;;;;;;;;;;;;;;;8.03;24.70;92019.50;6311900;22;19922;-79
2021/12/11 14:58:24;;;;;;;;;;;;;;;7.81;26.64;92027.84;6282993;22;19911;-80
2021/12/11 15:00:52;;;;;;;;;;;;;;;7.57;24.72;92033.88;6312987;22;19902;-81
2021/12/11 15:03:18;;;;;;;;;;;;;;;7.41;26.03;92028.06;6284452;22;19956;-80
2021/12/11 15:05:45;;;;;;;;;;;;;;;7.15;24.77;92032.75;6257596;22;19906;-80
2021/12/11 15:08:13;;;;;;;;;;;;;;;7.10;24.25;92030.19;6312490;22;19911;-79
2021/12/11 15:10:39;;;;;;;;;;;;;;;6.92;25.81;92042.06;6308385;22;19909;-79
2021/12/11 15:13:05;;;;;;;;;;;;;;;6.75;27.56;92049.50;6309511;22;20373;-80
2021/12/11 15:15:31;;;;;;;;;;;;;;;6.56;27.66;92057.19;6282371;22;19907;-78
2021/12/11 15:17:57;;;;;;;;;;;;;;;6.40;27.26;92065.09;6309017;22;19915;-79
2021/12/11 15:20:27;;;;;;;;;;;;;;;6.32;28.49;92060.44;6233406;22;19911;-79
2021/12/11 15:22:54;;;;;;;;;;;;;;;6.13;27.94;92062.91;6309584;22;19953;-80
2021/12/11 15:25:20;;;;;;;;;;;;;;;5.97;28.87;92071.84;6311373;22;19915;-82
2021/12/11 15:27:46;;;;;;;;;;;;;;;5.77;28.16;92070.84;6280788;22;20342;-83
2021/12/11 15:30:33;;;;;;;;;;;;;;;5.70;27.35;92067.00;6311835;22;20273;-79
2021/12/11 15:32:59;;;;;;;;;;;;;;;5.56;29.52;92072.75;6278908;22;19921;-80
2021/12/11 15:35:27;;;;;;;;;;;;;;;5.40;29.74;92073.81;6309698;22;19903;-79
2021/12/11 15:37:53;;;;;;;;;;;;;;;5.22;29.72;92075.94;6306619;22;19917;-80
2021/12/11 15:40:21;;;;;;;;;;;;;;;5.10;27.99;92085.06;6280827;22;19911;-77
2021/12/11 15:42:47;;;;;;;;;;;;;;;5.10;28.31;92085.81;6281433;22;19907;-80
2021/12/11 15:45:14;;;;;;;;;;;;;;;5.06;28.27;92089.97;6305844;22;19906;-79
2021/12/11 15:47:40;;;;;;;;;;;;;;;5.03;27.87;92089.72;6279483;22;19933;-81
2021/12/11 15:50:08;;;;;;;;;;;;;;;5.01;29.07;92100.38;6254702;22;19931;-80
2021/12/11 15:52:34;;;;;;;;;;;;;;;5.10;27.11;92106.56;6279360;22;19934;-79
2021/12/11 16:13:37;;;;;;;3.33;0.90;;;;;;;4.29;29.07;92128.81;5068697;28;20416;-78
2021/12/11 16:16:03;;;;;;;0.60;0.60;;;;;;;4.35;27.52;92135.59;5065450;28;20044;-79
2021/12/11 16:18:29;;;;;;;0.65;0.65;;;;;;;4.23;28.93;92140.19;5064646;28;20032;-78
2021/12/11 16:21:01;;;;;;;5.50;2.10;;;;;;;4.15;29.55;92143.31;5065529;28;20078;-79
2021/12/11 16:23:33;;;;;;;1.67;0.73;;;;;;;4.08;28.86;92132.41;5061670;28;20116;-78
2021/12/11 16:25:59;;;;;;;1.85;1.00;;;;;;;4.02;29.08;92146.38;5046345;28;20033;-80
2021/12/11 16:28:25;;;;;;;1.95;1.10;;;;;;;3.92;29.31;92160.84;5055443;28;20028;-80
2021/12/11 16:30:58;;;;;;;1.92;0.80;;;;;;;3.90;29.28;92165.50;5047985;28;20090;-78
2021/12/11 16:33:25;;;;;;;1.15;0.90;;;;;;;3.84;29.71;92163.91;5070561;28;20052;-80
2021/12/11 16:35:51;;;;;;;0.88;0.70;;;;;;;3.84;28.67;92169.06;5059055;28;20084;-77
2021/12/11 16:38:22;;;;;;;1.70;0.90;;;;;;;4.02;28.86;92172.25;5037628;28;20040;-79
2021/12/11 16:41:10;;;;;;;2.15;1.02;;;;;;;3.89;29.01;92169.09;5051960;28;20028;-82
2021/12/11 16:43:36;;;;;;;2.15;1.00;;;;;;;3.84;29.08;92163.91;5052133;28;20095;-77
2021/12/11 16:46:26;;;;;;;2.25;0.93;;;;;;;3.80;29.06;92173.19;5048946;28;20401;-79
2021/12/11 16:48:52;;;;;;;7.55;1.50;;;;;;;3.88;28.38;92182.31;5048631;28;20522;-77
2021/12/11 16:51:18;;;;;;;2.88;1.23;;;;;;;3.81;29.42;92186.94;5047817;28;20021;-79
2021/12/11 16:53:52;;;;;;;6.13;1.65;;;;;;;3.78;29.14;92184.84;5060813;28;20542;-81
2021/12/11 16:56:21;;;;;;;8.40;2.40;;;;;;;3.73;30.54;92183.00;5057239;28;20071;-76
2021/12/11 16:58:48;;;;;;;1.67;0.80;;;;;;;3.67;30.33;92191.75;5051589;28;20360;-77
2021/12/11 17:01:17;;;;;;;3.97;1.20;;;;;;;3.61;31.56;92195.38;5050592;28;20498;-77
2021/12/11 17:03:45;;;;;;;5.55;2.58;;;;;;;3.51;31.39;92199.47;5056901;28;20120;-77
2021/12/11 17:06:15;;;;;;;3.45;1.48;;;;;;;3.43;30.90;92201.72;5052772;28;20028;-78
2021/12/11 17:08:42;;;;;;;1.65;0.90;;;;;;;3.73;31.29;92201.13;5049407;28;20710;-78
2021/12/11 17:11:08;;;;;;;10.45;5.38;;;;;;;3.52;32.42;92215.75;5039491;27;20029;-77